Time,TemperatureF,DewpointF,PressureIn,WindDirection,WindDirectionDegrees,WindSpeedMPH,WindSpeedGustMPH,Humidity,HourlyPrecipIn,Conditions,Clouds,dailyrainin,SolarRadiationWatts/m^2,SoftwareType,DateUTC
2013-05-14 00:01:00,45.0,36.0,-100.00,NW,305,16.0,36.0,70,0.00,,,0.00,0.000000,,2013-05-14 06:01:00,
2013-05-14 00:32:00,44.0,34.0,-100.00,WSW,244,8.0,24.0,67,0.00,,,0.00,0.000000,,2013-05-14 06:32:00,
2013-05-14 00:42:00,44.0,34.0,-100.00,WSW,244,8.0,24.0,67,0.00,,,0.00,0.000000,,2013-05-14 06:42:00,
2013-05-14 00:52:00,44.0,34.0,-100.00,WSW,244,8.0,24.0,67,0.00,,,0.00,0.000000,,2013-05-14 06:52:00,
2013-05-14 01:01:00,44.0,34.0,-100.00,WSW,244,8.0,24.0,67,0.00,,,0.00,0.000000,,2013-05-14 07:01:00,
2013-05-14 01:32:00,42.0,32.0,-100.00,West,268,8.0,14.0,67,0.00,,,0.00,0.000000,,2013-05-14 07:32:00,
2013-05-14 01:42:00,42.0,32.0,-100.00,West,268,8.0,14.0,67,0.00,,,0.00,0.000000,,2013-05-14 07:42:00,
2013-05-14 01:52:00,42.0,32.0,-100.00,West,268,8.0,14.0,67,0.00,,,0.00,0.000000,,2013-05-14 07:52:00,
2013-05-14 02:02:00,42.0,32.0,-100.00,West,268,8.0,14.0,67,0.00,,,0.00,0.000000,,2013-05-14 08:02:00,
2013-05-14 02:32:00,41.0,30.0,-100.00,West,263,9.0,14.0,64,0.00,,,0.00,0.000000,,2013-05-14 08:32:00,
2013-05-14 02:42:00,41.0,30.0,-100.00,West,263,9.0,14.0,64,0.00,,,0.00,0.000000,,2013-05-14 08:42:00,
2013-05-14 02:52:00,41.0,30.0,-100.00,West,263,9.0,14.0,64,0.00,,,0.00,0.000000,,2013-05-14 08:52:00,
2013-05-14 03:01:00,41.0,30.0,-100.00,West,263,9.0,14.0,64,0.00,,,0.00,0.000000,,2013-05-14 09:01:00,
2013-05-14 03:32:00,40.0,29.0,-100.00,SW,225,8.0,17.0,65,0.00,,,0.00,0.000000,,2013-05-14 09:32:00,
2013-05-14 03:44:00,40.0,29.0,-100.00,SW,225,8.0,17.0,65,0.00,,,0.00,0.000000,,2013-05-14 09:44:00,
2013-05-14 03:54:00,40.0,29.0,-100.00,SW,225,8.0,17.0,65,0.00,,,0.00,0.000000,,2013-05-14 09:54:00,
2013-05-14 04:04:00,40.0,29.0,-100.00,SW,225,8.0,17.0,65,0.00,,,0.00,0.000000,,2013-05-14 10:04:00,
2013-05-14 04:33:00,39.0,29.0,-100.00,West,269,9.0,16.0,67,0.00,,,0.00,0.000000,,2013-05-14 10:33:00,
2013-05-14 04:42:00,39.0,29.0,-100.00,West,269,9.0,16.0,67,0.00,,,0.00,0.000000,,2013-05-14 10:42:00,
2013-05-14 04:52:00,39.0,29.0,-100.00,West,269,9.0,16.0,67,0.00,,,0.00,0.000000,,2013-05-14 10:52:00,
2013-05-14 05:02:00,39.0,29.0,-100.00,West,269,9.0,16.0,67,0.00,,,0.00,0.000000,,2013-05-14 11:02:00,
2013-05-14 05:32:00,38.0,29.0,-100.00,SW,225,6.0,13.0,70,0.00,,,0.00,0.000000,,2013-05-14 11:32:00,
2013-05-14 05:43:00,38.0,29.0,-100.00,SW,225,6.0,13.0,70,0.00,,,0.00,0.000000,,2013-05-14 11:43:00,
2013-05-14 05:53:00,38.0,29.0,-100.00,SW,225,6.0,13.0,70,0.00,,,0.00,0.000000,,2013-05-14 11:53:00,
2013-05-14 06:02:00,38.0,29.0,-100.00,SW,225,6.0,13.0,70,0.00,,,0.00,0.000000,,2013-05-14 12:02:00,
2013-05-14 06:32:00,38.0,29.0,-100.00,SSW,213,9.0,12.0,69,0.00,,,0.00,1.000000,,2013-05-14 12:32:00,
2013-05-14 06:42:00,38.0,29.0,-100.00,SSW,213,9.0,12.0,69,0.00,,,0.00,1.000000,,2013-05-14 12:42:00,
2013-05-14 06:52:00,38.0,29.0,-100.00,SSW,213,9.0,12.0,69,0.00,,,0.00,1.000000,,2013-05-14 12:52:00,
2013-05-14 07:01:00,38.0,29.0,-100.00,SSW,213,9.0,12.0,69,0.00,,,0.00,1.000000,,2013-05-14 13:01:00,
2013-05-14 08:32:00,42.0,30.0,-100.00,WSW,253,6.0,10.0,62,-99.99,,,0.00,262.000000,,2013-05-14 14:32:00,
2013-05-14 08:42:00,42.0,30.0,-100.00,WSW,253,6.0,10.0,62,-99.99,,,0.00,262.000000,,2013-05-14 14:42:00,
2013-05-14 08:52:00,42.0,30.0,-100.00,WSW,253,6.0,10.0,62,-99.99,,,0.00,262.000000,,2013-05-14 14:52:00,
2013-05-14 09:01:00,42.0,30.0,-100.00,WSW,253,6.0,10.0,62,-99.99,,,0.00,262.000000,,2013-05-14 15:01:00,
2013-05-14 09:33:00,42.0,29.0,-100.00,SSW,205,7.0,11.0,60,0.00,,,0.00,432.000000,,2013-05-14 15:33:00,
2013-05-14 09:43:00,42.0,29.0,-100.00,SSW,205,7.0,11.0,60,0.00,,,0.00,432.000000,,2013-05-14 15:43:00,
2013-05-14 09:53:00,42.0,29.0,-100.00,SSW,205,7.0,11.0,60,0.00,,,0.00,432.000000,,2013-05-14 15:53:00,
2013-05-14 10:02:00,42.0,29.0,-100.00,SSW,205,7.0,11.0,60,0.00,,,0.00,432.000000,,2013-05-14 16:02:00,
2013-05-14 10:33:00,45.0,28.0,-100.00,SSE,166,9.0,15.0,51,0.00,,,0.00,291.000000,,2013-05-14 16:33:00,
2013-05-14 10:44:00,45.0,28.0,-100.00,SSE,166,9.0,15.0,51,0.00,,,0.00,291.000000,,2013-05-14 16:44:00,
2013-05-14 10:54:00,45.0,28.0,-100.00,SSE,166,9.0,15.0,51,0.00,,,0.00,291.000000,,2013-05-14 16:54:00,
2013-05-14 11:03:00,45.0,28.0,-100.00,SSE,166,9.0,15.0,51,0.00,,,0.00,291.000000,,2013-05-14 17:03:00,
2013-05-14 11:33:00,47.0,26.0,-100.00,SSW,213,13.0,20.0,43,0.00,,,0.00,846.000000,,2013-05-14 17:33:00,
2013-05-14 11:43:00,47.0,26.0,-100.00,SSW,213,13.0,20.0,43,0.00,,,0.00,846.000000,,2013-05-14 17:43:00,
2013-05-14 11:52:00,47.0,26.0,-100.00,SSW,213,13.0,20.0,43,0.00,,,0.00,846.000000,,2013-05-14 17:52:00,
2013-05-14 12:01:00,47.0,26.0,-100.00,SSW,213,13.0,20.0,43,0.00,,,0.00,846.000000,,2013-05-14 18:01:00,
2013-05-14 12:32:00,53.0,25.0,-100.00,SW,220,9.0,21.0,33,0.00,,,-99.99,977.000000,,2013-05-14 18:32:00,
2013-05-14 12:42:00,53.0,25.0,-100.00,SW,220,9.0,21.0,33,0.00,,,-99.99,977.000000,,2013-05-14 18:42:00,
2013-05-14 12:52:00,53.0,25.0,-100.00,SW,220,9.0,21.0,33,0.00,,,-99.99,977.000000,,2013-05-14 18:52:00,
2013-05-14 13:01:00,53.0,25.0,-100.00,SW,220,9.0,21.0,33,0.00,,,-99.99,977.000000,,2013-05-14 19:01:00,
2013-05-14 13:32:00,55.0,24.0,-100.00,WSW,247,9.0,24.0,30,0.00,,,-99.99,1155.000000,,2013-05-14 19:32:00,
2013-05-14 13:42:00,55.0,24.0,-100.00,WSW,247,9.0,24.0,30,0.00,,,-99.99,1155.000000,,2013-05-14 19:42:00,
2013-05-14 13:52:00,55.0,24.0,-100.00,WSW,247,9.0,24.0,30,0.00,,,-99.99,1155.000000,,2013-05-14 19:52:00,
2013-05-14 14:02:00,55.0,24.0,-100.00,WSW,247,9.0,24.0,30,0.00,,,-99.99,1155.000000,,2013-05-14 20:02:00,
2013-05-14 14:33:00,58.0,23.0,-100.00,West,261,11.0,21.0,26,0.00,,,0.00,1130.000000,,2013-05-14 20:33:00,
2013-05-14 14:44:00,58.0,23.0,-100.00,West,261,11.0,21.0,26,0.00,,,0.00,1130.000000,,2013-05-14 20:44:00,
2013-05-14 14:52:00,58.0,23.0,-100.00,West,261,11.0,21.0,26,0.00,,,0.00,1130.000000,,2013-05-14 20:52:00,
2013-05-14 15:03:00,58.0,23.0,-100.00,West,261,11.0,21.0,26,0.00,,,0.00,1130.000000,,2013-05-14 21:03:00,
2013-05-14 16:34:00,62.0,24.0,-100.00,West,262,7.0,23.0,23,-99.99,,,0.00,948.000000,,2013-05-14 22:34:00,
2013-05-14 16:45:00,62.0,24.0,-100.00,West,262,7.0,23.0,23,-99.99,,,0.00,948.000000,,2013-05-14 22:45:00,
2013-05-14 16:54:00,62.0,24.0,-100.00,West,262,7.0,23.0,23,-99.99,,,0.00,948.000000,,2013-05-14 22:54:00,
2013-05-14 17:03:00,62.0,24.0,-100.00,West,262,7.0,23.0,23,-99.99,,,0.00,948.000000,,2013-05-14 23:03:00,
2013-05-14 17:32:00,59.0,21.0,-100.00,NW,309,10.0,23.0,23,0.00,,,0.00,603.000000,,2013-05-14 23:32:00,
2013-05-14 17:44:00,59.0,21.0,-100.00,NW,309,10.0,23.0,23,0.00,,,0.00,603.000000,,2013-05-14 23:44:00,
2013-05-14 17:52:00,59.0,21.0,-100.00,NW,309,10.0,23.0,23,0.00,,,0.00,603.000000,,2013-05-14 23:52:00,
2013-05-14 18:01:00,59.0,21.0,-100.00,NW,309,10.0,23.0,23,0.00,,,0.00,603.000000,,2013-05-15 00:01:00,
2013-05-14 19:32:00,56.0,27.0,-100.00,NW,308,10.0,18.0,32,-99.99,,,0.00,385.000000,,2013-05-15 01:32:00,
2013-05-14 19:42:00,56.0,27.0,-100.00,NW,308,10.0,18.0,32,-99.99,,,0.00,385.000000,,2013-05-15 01:42:00,
2013-05-14 19:52:00,56.0,27.0,-100.00,NW,308,10.0,18.0,32,-99.99,,,0.00,385.000000,,2013-05-15 01:52:00,
2013-05-14 20:01:00,56.0,27.0,-100.00,NW,308,10.0,18.0,32,-99.99,,,0.00,385.000000,,2013-05-15 02:01:00,
2013-05-14 20:32:00,52.0,28.0,-100.00,NW,308,10.0,16.0,39,0.00,,,0.00,176.000000,,2013-05-15 02:32:00,
2013-05-14 20:42:00,52.0,28.0,-100.00,NW,308,10.0,16.0,39,0.00,,,0.00,176.000000,,2013-05-15 02:42:00,
2013-05-14 20:52:00,52.0,28.0,-100.00,NW,308,10.0,16.0,39,0.00,,,0.00,176.000000,,2013-05-15 02:52:00,
2013-05-14 21:01:00,52.0,28.0,-100.00,NW,308,10.0,16.0,39,0.00,,,0.00,176.000000,,2013-05-15 03:01:00,
2013-05-14 21:33:00,49.0,28.0,-100.00,NNW,334,11.0,16.0,44,0.00,,,0.00,15.000000,,2013-05-15 03:33:00,
2013-05-14 21:44:00,49.0,28.0,-100.00,NNW,334,11.0,16.0,44,0.00,,,0.00,15.000000,,2013-05-15 03:44:00,
2013-05-14 21:54:00,49.0,28.0,-100.00,NNW,334,11.0,16.0,44,0.00,,,0.00,15.000000,,2013-05-15 03:54:00,
2013-05-14 22:03:00,49.0,28.0,-100.00,NNW,334,11.0,16.0,44,0.00,,,0.00,15.000000,,2013-05-15 04:03:00,
2013-05-14 22:33:00,47.0,26.0,-100.00,NW,305,6.0,14.0,43,0.00,,,0.00,0.000000,,2013-05-15 04:33:00,
2013-05-14 22:43:00,47.0,26.0,-100.00,NW,305,6.0,14.0,43,0.00,,,0.00,0.000000,,2013-05-15 04:43:00,
2013-05-14 22:52:00,47.0,26.0,-100.00,NW,305,6.0,14.0,43,0.00,,,0.00,0.000000,,2013-05-15 04:52:00,
2013-05-14 23:02:00,47.0,26.0,-100.00,NW,305,6.0,14.0,43,0.00,,,0.00,0.000000,,2013-05-15 05:02:00,
2013-05-14 23:32:00,46.0,26.0,-100.00,WSW,247,6.0,10.0,46,0.00,,,0.00,0.000000,,2013-05-15 05:32:00,
2013-05-14 23:42:00,46.0,26.0,-100.00,WSW,247,6.0,10.0,46,0.00,,,0.00,0.000000,,2013-05-15 05:42:00,
2013-05-14 23:52:00,46.0,26.0,-100.00,WSW,247,6.0,10.0,46,0.00,,,0.00,0.000000,,2013-05-15 05:52:00,